Regional Weather Synopsis
Issued by NWS Denver/Boulder, CO

Home | Current Version | Previous Version | Text Only | Print | Product List | Glossary On
Versions: 1 2 3 4 5 6 7 8 9 10 11 12 13 14 15 16 17 18 19 20 21 22 23 24 25 26 27 28 29 30 31 32 33 34 35 36 37 38 39 40 41 42 43 44 45 46 47 48 49 50
000
NZUS99 KBOU 152307
SYNBOU

Hot-Air Balloon Forecast for Colorado
National Weather Service Denver/Boulder, Colorado
1605 MST Thursday, November 15, 2018


* * * * * Northeast Colorado * * * * *

METAR KFNL 152256Z AUTO 18007KT 10SM CLR 14/M05 A3010 RMK AO2 SLP185
       T01441050 PNO $
METAR KFNL 152156Z AUTO 18009KT 10SM CLR 16/M05 A3010 RMK AO2 SLP178
       T01561050 PNO $
METAR KFNL 152056Z AUTO 18010KT 10SM CLR 15/M06 A3010 RMK AO2 SLP182
       6//// T01501061 56017 PNO $

METAR KGXY 152256Z AUTO 21008KT 10SM CLR 16/M07 A3010 RMK AO2 SLP208
       T01561067
METAR KGXY 152156Z AUTO 21005KT 10SM CLR 17/M07 A3009 RMK AO2 SLP203
       T01721072
METAR KGXY 152056Z AUTO 21005KT 10SM CLR 17/M07 A3010 RMK AO2 SLP203
       T01671067 56021

METAR KLMO 152255Z AUTO 13007KT 10SM CLR 16/M07 A3012 RMK AO2
       T01551068
METAR KLMO 152235Z AUTO 11007KT 10SM CLR 17/M07 A3012 RMK AO2
       T01661066
METAR KLMO 152215Z AUTO 14005KT 10SM CLR 17/M08 A3012 RMK AO2
       T01721084

METAR KBDU 152253Z AUTO 11004KT 10SM CLR 12/M06 A3011 RMK AO2
METAR KBDU 152235Z AUTO 00000KT 10SM CLR 13/M06 A3011 RMK AO2
METAR KBDU 152212Z AUTO 12007KT 10SM CLR 15/M06 A3010 RMK AO2

METAR KEIK 152254Z AUTO 14006KT 10SM CLR 14/M09 A3016 RMK AO2
       T01361093
METAR KEIK 152236Z AUTO 13006KT 10SM CLR 15/M09 A3016 RMK AO2
       T01511089
METAR KEIK 152212Z AUTO 14009KT 10SM CLR 15/M09 A3016 RMK AO2
       T01501091

KBJC 151731Z 1518/1618 02010KT P6SM FEW250
     FM152100 10005KT P6SM FEW150 SCT250
     FM152300 17005KT P6SM FEW150 SCT250
     FM160500 25005KT P6SM SCT250
     FM161700 VRB04KT P6SM BKN150
METAR KBJC 152245Z 15005KT 50SM SCT200 13/M08 A3013
METAR KBJC 152145Z 11009KT 50SM SCT220 14/M08 A3013
METAR KBJC 152052Z 11010KT 50SM SCT220 15/M08 A3013

KDEN 152008Z 1520/1624 08010KT P6SM FEW150 SCT250
     FM160000 11007KT P6SM FEW140 SCT250
     FM160300 23007KT P6SM SCT250
     FM161800 29006KT P6SM BKN150
METAR KDEN 152253Z 09008KT 10SM FEW150 SCT220 12/M07 A3012 RMK AO2
       SLP174 T01221072
METAR KDEN 152153Z 08010KT 10SM FEW150 SCT220 14/M08 A3012 RMK AO2
       SLP167 T01391083
METAR KDEN 152053Z 11009KT 10SM FEW150 SCT220 14/M08 A3012 RMK AO2
       SLP168 T01441083 56018

METAR KFTG 152247Z 07003KT 10SM SCT200 12/M06 A3014
METAR KFTG 152147Z 06008G14KT 10SM SCT200 15/M08 A3013
METAR KFTG 152055Z 08007KT 10SM SCT200 15/M07 A3014

KBKF 151702Z 1517/1623 36009KT 9999 FEW150 SCT210 QNH3013INS
      BECMG 1518/1519 05009KT 9999 FEW160 SCT220 QNH3010INS
      BECMG 1601/1602 20009KT 9999 FEW180 QNH3002INS
      BECMG 1620/1621 31009KT 9999 FEW200 QNH2991INS TX18/1522Z
      TN04/1612Z
METAR KBKF 152258Z 11006KT 10SM FEW150 SCT250 10/M06 A3013 RMK AO2A
       SLP187 T00961059
METAR KBKF 152158Z 09007KT 10SM SCT150 BKN250 14/M07 A3013 RMK AO2A
       SLP178 T01401074

KAPA 152008Z 1520/1618 11008KT P6SM FEW150 SCT250
     FM160300 19006KT P6SM SCT250
     FM161700 VRB04KT P6SM BKN150
METAR KAPA 152253Z 12007KT 10SM SCT140 BKN220 12/M06 A3014 RMK AO2
       SLP193 ACSL DSNT W T01171061
METAR KAPA 152153Z 10011KT 10SM FEW140 BKN220 12/M06 A3013 RMK AO2
       SLP189 ACSL DSNT W AND NW T01221056
METAR KAPA 152053Z 08006KT 10SM FEW140 SCT220 13/M07 A3013 RMK AO2
       SLP190 ACSL DSNT W AND NW T01281072 56016

METAR KMNH 152248Z AUTO 08005KT 10SM CLR 07/M06 A3019 RMK AO2
METAR KMNH 152224Z AUTO 07006KT 10SM CLR 07/M07 A3019 RMK AO2
METAR KMNH 152206Z AUTO 08007KT 10SM CLR 08/M07 A3018 RMK AO2

METAR KFMM 152255Z AUTO 06005KT 10SM 14/M11 A3011 RMK AO2 T01401106
METAR KFMM 152235Z AUTO 03007KT 10SM 15/M11 A3011 RMK AO2 T01491108
METAR KFMM 152215Z AUTO 02009KT 10SM 16/M11 A3011 RMK AO2 T01561108

METAR KSTK 152300Z AUTO 01007KT 10SM CLR 14/M05 A3008 RMK AO2
METAR KSTK 152240Z AUTO 02008KT 10SM CLR 15/M05 A3008 RMK AO2
METAR KSTK 152220Z AUTO 02007KT 10SM CLR 15/M05 A3008 RMK AO2

METAR KAKO 152253Z AUTO 03007KT 10SM CLR 12/M06 A3011 RMK AO2 SLP195
       T01171056
METAR KAKO 152153Z AUTO 01011KT 10SM CLR 14/M06 A3011 RMK AO2 SLP187
       T01391056
METAR KAKO 152053Z AUTO 03015KT 10SM CLR 13/M05 A3011 RMK AO2 SLP187
        T01331050 57013

METAR KLIC 152255Z AUTO 01006KT 10SM CLR 11/M06 A3014 RMK AO2 SLP194
       T01111061
METAR KLIC 152155Z AUTO 02009KT 10SM CLR 12/M07 A3014 RMK AO2 SLP191
       T01221067
METAR KLIC 152055Z AUTO 35012KT 10SM CLR 13/M07 A3014 RMK AO2 SLP192
       T01281067 56013

METAR KHEQ 152250Z AUTO 36008KT 10SM CLR 15/M03 A3010 RMK AO2
METAR KHEQ 152230Z AUTO 36010G15KT 10SM CLR 15/M04 A3010 RMK AO2
METAR KHEQ 152210Z AUTO 35012KT 10SM CLR 16/M04 A3010 RMK AO2

METAR K2V6 152254Z AUTO 02006KT 10SM CLR 10/M13 A3010 RMK AO2
METAR K2V6 152234Z AUTO 01009KT 10SM CLR 12/M13 A3011 RMK AO2
METAR K2V6 152214Z AUTO 36010KT 10SM CLR 13/M15 A3010 RMK AO2

METAR K2V5 152255Z AUTO 01007KT 10SM CLR 14/M05 A3010 RMK AO2
METAR K2V5 152235Z AUTO 01011G16KT 10SM CLR 15/M05 A3010 RMK AO2
METAR K2V5 152215Z AUTO 01007KT 10SM CLR 15/M05 A3009 RMK AO2

METAR KITR 152253Z AUTO 03007KT 10SM CLR 11/M03 A3011 RMK AO2 SLP195
       T01111033
METAR KITR 152153Z AUTO 02010KT 10SM CLR 13/M04 A3010 RMK AO2 SLP188
       T01331044
METAR KITR 152053Z AUTO 36015KT 10SM CLR 15/M04 A3009 RMK AO2 PK WND
       36026/1959 SLP182 T01501044 55006

Sunrise/Sunset for 11/15/2018
Fort Collins - 06:47:03 MST / 16:42:42 MST
Denver       - 06:44:43 MST / 16:44:12 MST
Sterling     - 06:39:52 MST / 16:35:04 MST

Denver/Boulder Aviation Discussion
Issued at 2143 UTC Thursday, November 15, 2018

.AVIATION...(For the 18Z TAFS through 18Z Friday afternoon)
Issued at 243 PM MST Thu Nov 15 2018
VFR through Friday. Winds will come around to southeast later this
afternoon then turn to drainage after 03Z. Expect southwest
drainage winds to go west then west-northwest after 18Z Friday.
Speeds will be at or less than 10 kts until after 20Z, when up to
15 kts could occur out of the west at BJC and DEN, but confidence
in stronger west winds at DEN is low ATTM. APA winds are likely
to stay light until around midnight Friday night into Saturday. A
cold front will reach DEN around 03Z Saturday with a shift to
north winds and IFR stratus not far behind.


* * * * * Southeast Colorado * * * * *

METAR K4BM 152254Z AUTO 29003KT 10SM CLR 02/M15 A3033 RMK AO2 LTG DSNT
       NW
METAR K4BM 152236Z AUTO 28004KT 10SM CLR 02/M15 A3033 RMK AO2
METAR K4BM 152212Z AUTO 28004KT 10SM CLR 03/M15 A3033 RMK AO2

METAR KAFF 152258Z AUTO 10009KT 10SM CLR 11/M08 A3015 RMK AO2 SLP201
       T01141079
METAR KAFF 152158Z AUTO 11006KT 10SM CLR 13/M09 A3014 RMK AO2 SLP191
       T01301095

KCOS 152010Z 1520/1618 08011KT P6SM SCT250
     FM160800 04006KT P6SM SCT250
METAR KCOS 152254Z 07011KT 10SM SCT250 12/M07 A3016 RMK AO2 SLP185
       T01171067 $
METAR KCOS 152154Z 07011KT 10SM SCT250 13/M08 A3015 RMK AO2 SLP177
       T01331078 $
METAR KCOS 152054Z 07012G18KT 10SM SCT250 14/M08 A3015 RMK AO2 SLP177
       T01391078 56011 $

METAR KABH 152256Z AUTO 08007KT A3015 RMK AO2 SLPNO $
METAR KABH 152156Z AUTO 05011KT A3014 RMK AO2 SLPNO $
METAR KABH 152056Z AUTO 03010KT A3014 RMK AO2 SLPNO 57011 $

METAR KFLY 152255Z AUTO 06008KT 10SM CLR 09/M08 A3018 RMK AO2
       T00921082
METAR KFLY 152235Z AUTO 06008KT 10SM CLR 10/M09 A3018 RMK AO2
       T01001086
METAR KFLY 152215Z AUTO 08009KT 10SM CLR 11/M08 A3018 RMK AO2
       T01061085

KFCS 152127Z 1521/1703 06009KT 9999 SKC QNH3011INS
      BECMG 1600/1601 31009KT 9999 FEW200 QNH3004INS
      BECMG 1617/1618 20012KT 9999 SCT120 QNH2994INS
      TEMPO 1618/1621 20015G22KT
      BECMG 1700/1701 33009KT 9999 BKN100 QNH2995INS TX19/1522Z
      TNM02/1612Z
METAR KFCS 152258Z AUTO 09009KT 10SM CLR 13/M06 A3014 RMK AO2 SLP215
       T01261064 $
METAR KFCS 152158Z AUTO 10007KT 10SM CLR 15/M08 A3013 RMK AO2 SLP206
       T01521076 $

KPUB 151723Z 1518/1618 VRB05KT P6SM FEW250
     FM152000 10008KT P6SM SCT250
     FM160100 VRB05KT P6SM SCT250
METAR KPUB 152253Z AUTO 14008KT 10SM CLR 17/M06 A3010 RMK AO2 SLP178
       T01671061
METAR KPUB 152153Z 12010KT 10SM CLR 18/M06 A3009 RMK AO2 SLP176
       T01781061
METAR KPUB 152053Z 16007KT 10SM CLR 18/M05 A3009 RMK AO2 SLP176
       T01781050 56015


METAR KTAD 152254Z AUTO 15007KT 10SM CLR 13/M04 A3014 RMK AO2 SLP186
       T01281044
METAR KTAD 152154Z AUTO 16010KT 10SM CLR 14/M04 A3013 RMK AO2 SLP179
       T01391044
METAR KTAD 152054Z AUTO 16008KT 10SM CLR 14/M02 A3014 RMK AO2 SLP175
       T01441017 56013

METAR KLHX 152253Z AUTO 03007KT 10SM CLR 17/M04 A3010 RMK AO2 SLP179
       T01671039
METAR KLHX 152153Z AUTO 02003KT 10SM CLR 18/M06 A3009 RMK AO2 SLP172
        T01831061
METAR KLHX 152053Z AUTO VRB03KT 10SM CLR 18/M06 A3010 RMK AO2 SLP172
       T01831056 56012

METAR KLAA 152253Z AUTO 02007KT 10SM CLR 17/M03 A3009 RMK AO2 SLP182
       T01671033
METAR KLAA 152153Z AUTO 01011KT 10SM CLR 18/M04 A3007 RMK AO2 SLP171
       T01831044
METAR KLAA 152053Z AUTO 36012G20KT 10SM CLR 19/M04 A3007 RMK AO2 SLP170
        T01891044 55017

METAR KSPD 152256Z AUTO 36009KT 14/M03 A3010 RMK AO1 SLP172
       T01391033
METAR KSPD 152156Z AUTO 02012KT 16/M04 A3009 RMK AO1 SLP168
       T01611044
METAR KSPD 152056Z AUTO A3009 RMK AO1 SLPNO 6////

Sunrise/Sunset for 11/15/2018
Burlington - 06:32:59 MST / 16:34:24 MST
Pueblo     - 06:40:03 MST / 16:46:07 MST
Lamar      - 06:31:39 MST / 16:38:30 MST

Pueblo (KPUX) 11/15/18 22:57 UTC
Radar VAD winds      Height      Dir/Spd(kt)
                   8000 FT MSL...092/002
                   7800 FT MSL...097/003
                   7000 FT MSL...055/023
                   6400 FT MSL...055/022
                   6000 FT MSL...054/014
                   5900 FT MSL...052/014
                   5700 FT MSL...053/014

Pueblo Aviation Discussion
Issued at 2239 UTC Thursday, November 15, 2018

.AVIATION...(For the 00Z TAFS through 00Z Friday evening)
Issued at 237 PM MST Thu Nov 15 2018
VFR conditions are near certain during the next 24 hours at each of
the taf sites, kpub, kals and kcos. Winds will be light tonight and
tomorrow, but expect more of a south to southwesterly component to
the wind field by tomorrow afternoon.


* * * * * Northwest Colorado * * * * *

METAR KCAG 152253Z AUTO 28003KT 10SM CLR 10/M07 A3022 RMK AO2 SLP257
       T01001072
METAR KCAG 152153Z AUTO 29005KT 10SM CLR 11/M08 A3023 RMK AO2 SLP258
       T01061083
METAR KCAG 152053Z AUTO 26005KT 10SM CLR 11/M09 A3025 RMK AO2 SLP255
       T01111094 56025

METAR KHDN 152256Z AUTO 29006KT 10SM CLR 08/M09 A3024 RMK AO2 SLP243
       T00831089
METAR KHDN 152156Z AUTO 30007KT 10SM CLR 09/M09 A3025 RMK AO2 SLP246
       T00891094
METAR KHDN 152056Z AUTO 28011KT 10SM CLR 09/M10 A3026 RMK AO2 SLP243
       T00941100 56024

METAR KSBS 152255Z AUTO 00000KT 10SM CLR 07/M09 A3023 RMK AO1
       T00711086
METAR KSBS 152235Z AUTO 00000KT 10SM CLR 07/M09 A3024 RMK AO1
       T00711089
METAR KSBS 152215Z AUTO 00000KT 10SM CLR 08/M09 A3024 RMK AO1
       T00771095

METAR KC07 152248Z AUTO 24004KT 10SM CLR M02/M07 A3031 RMK AO2
METAR KC07 152230Z AUTO 26004KT 10SM CLR M01/M07 A3031 RMK AO2
METAR KC07 152206Z AUTO 26005KT 10SM CLR M01/M07 A3031 RMK AO2

METAR K33V 152255Z AUTO 20007KT 10SM CLR 04/M11 A3025 RMK AO1
METAR K33V 152235Z AUTO 21010KT 10SM CLR 04/M12 A3025 RMK AO1
METAR K33V 152215Z AUTO 20011KT 10SM CLR 05/M12 A3025 RMK AO1

METAR KEEO 152253Z AUTO 36006KT 10SM CLR 12/M11 A3021 RMK AO2 SLP224
       T01221106
METAR KEEO 152153Z AUTO 24008KT 10SM CLR 12/M11 A3021 RMK AO2 SLP223
       T01221111
METAR KEEO 152053Z AUTO VRB04KT 10SM CLR 12/M11 A3023 RMK AO2 SLP229
       T01221111 56028

METAR K20V 152248Z AUTO 00000KT 10SM CLR 05/M07 A3026 RMK AO2
METAR K20V 152230Z AUTO 00000KT 10SM CLR 05/M07 A3026 RMK AO2
METAR K20V 152212Z AUTO 00000KT 10SM CLR 04/M07 A3027 RMK AO2

METAR KGNB 152255Z AUTO 20003KT 10SM CLR 05/M10 A3026 RMK AO2
       T00541101
METAR KGNB 152250Z AUTO 21004KT 10SM CLR 06/M10 A3027 RMK AO2
       T00551102
METAR KGNB 152255Z AUTO 20003KT 10SM CLR 05/M10 A3026 RMK AO2 T00541101

METAR K0CO 152306Z AUTO 34007G21KT 301V021 10SM CLR M06/M14 A3032 RMK
       AO2
METAR K0CO 152247Z AUTO 33013G21KT 271V061 10SM CLR M06/M14 A3032 RMK
        AO2
METAR K0CO 152223Z AUTO 01008G23KT 271V081 10SM CLR M06/M13 A3033 RMK
       AO2

KGJT 151720Z 1518/1618 VRB05KT P6SM SKC
     FM151900 29005KT P6SM SKC
     FM160200 06005KT P6SM SKC
     FM160600 11005KT P6SM SKC
METAR KGJT 152253Z 30006KT 10SM CLR 11/M06 A3020 RMK AO2 SLP222
       T01111056
METAR KGJT 152153Z 28003KT 10SM CLR 11/M06 A3021 RMK AO2 SLP224
       T01111061
METAR KGJT 152053Z 02003KT 10SM CLR 11/M06 A3022 RMK AO2 SLP230
       T01111061 56034

KRIL 151720Z 1518/1618 02003KT P6SM SKC
     FM152000 31004KT P6SM SKC
     FM160200 00000KT P6SM SKC
METAR KRIL 152253Z AUTO 31003KT 10SM CLR 12/M07 A3019 RMK AO2 SLP222
       T01221072
METAR KRIL 152153Z AUTO 29004KT 10SM CLR 12/M07 A3020 RMK AO2 SLP225
       T01221067
METAR KRIL 152053Z AUTO 00000KT 10SM CLR 11/M08 A3022 RMK AO2 SLP235
       T01111078 56037

METAR K5SM 152254Z AUTO 25005KT 10SM CLR 00/M13 A3037 RMK AO2
METAR K5SM 152230Z AUTO 24005KT 10SM CLR 00/M14 A3037 RMK AO2
METAR K5SM 152212Z AUTO 25006KT 10SM CLR 01/M13 A3037 RMK AO2

KEGE 151720Z 1518/1618 VRB05KT P6SM SKC
     FM151900 28004KT P6SM SKC
     FM160200 VRB03KT P6SM SKC
METAR KEGE 152256Z 00000KT 10SM CLR 11/M08 A3023 RMK AO2 SLP261
       T01061083
METAR KEGE 152156Z 25004KT 10SM CLR 10/M08 A3024 RMK AO2 SLP268
       T01001083
METAR KEGE 152056Z VRB03KT 10SM CLR 08/M08 A3026 RMK AO2 SLP278
       T00831083 56039

KASE 151720Z 1518/1618 VRB05KT P6SM SKC
     FM160200 21005KT P6SM SKC
METAR KASE 152253Z 29003KT 10SM CLR 07/M11 A3023 RMK AO2 SLP172
       T00721106
METAR KASE 152153Z 34006KT 10SM CLR 10/M13 A3023 RMK AO2 SLP190
       T01001128
METAR KASE 152053Z 35005KT 10SM CLR 10/M12 A3024 RMK AO2 SLP166 T01001122
        56023

METAR KCCU 152254Z AUTO 30006KT 10SM CLR 01/M13 A3035 RMK AO2
METAR KCCU 152236Z AUTO 10SM CLR 01/M13 A3035 RMK AO2
METAR KCCU 152212Z AUTO 31009KT 10SM CLR 01/M14 A3034 RMK AO2

METAR KLXV 152253Z AUTO 30008KT 10SM CLR 03/M12 A3027 RMK AO2 SLP204
       T00331122
METAR KLXV 152153Z AUTO 31009KT 10SM CLR 04/M13 A3027 RMK AO2 SLP199
        T00391128
METAR KLXV 152053Z AUTO 29008KT 10SM CLR 04/M12 A3028 RMK AO2 SLP196
       T00441122 56016

Sunrise/Sunset for 11/15/2018
Rangely           - 07:00:48 MST / 16:58:38 MST
Grand Junction    - 06:57:37 MST / 17:00:01 MST
Steamboat Springs - 06:53:53 MST / 16:49:54 MST

Grand Junction (KGJX) 11/15/18 22:47 UTC
Radar VAD winds      Height      Dir/Spd(kt)
                  10400 FT MSL...182/023

Grand Junction Aviation Discussion
Issued at 2257 UTC Thursday, November 15, 2018

.AVIATION...(For the 18Z TAFS through 18Z Friday afternoon)
Issued at 1020 AM MST Thu Nov 15 2018
VFR continues as some medium to high clouds move in from the
northwest. Cloud cover will remain few to scattered though some
broken cloud decks are possible. Any ceilings will be above 15K
feet.


* * * * * Southwest Colorado * * * * *

METAR KAJZ 152255Z AUTO 22004KT 10SM CLR 14/M09 A3020 RMK AO2
       T01361087
METAR KAJZ 152235Z AUTO 22005KT 10SM CLR 13/M09 A3020 RMK AO2
       T01341088
METAR KAJZ 152215Z AUTO 00000KT 10SM CLR 14/M09 A3021 RMK AO2
       T01351088

KMTJ 151720Z 1518/1618 33003KT P6SM SKC
     FM160200 15005KT P6SM SKC
METAR KMTJ 152253Z AUTO 34004KT 10SM CLR 11/M07 A3022 RMK AO2 SLP225
       T01061072
METAR KMTJ 152153Z AUTO 34005KT 10SM CLR 11/M07 A3023 RMK AO2 SLP225
       T01061072
METAR KMTJ 152053Z AUTO 35004KT 10SM CLR 10/M07 A3025 RMK AO2 SLP233
       T01001067 56030

METAR KGUC 152256Z AUTO 04004KT 10SM CLR 07/M08 A3024 RMK AO2 SLP275
       T00671078
METAR KGUC 152156Z AUTO 00000KT 10SM CLR 07/M08 A3025 RMK AO2 SLP278
       T00671083
METAR KGUC 152056Z AUTO 00000KT 10SM CLR 06/M08 A3027 RMK AO2 SLP285
       T00561083 56032

METAR K7BM 152247Z AUTO 28006G14KT 220V340 10SM CLR 07/M19 A3027 RMK
       AO2
METAR K7BM 152230Z AUTO 28004KT 10SM CLR 07/M19 A3027 RMK AO2
METAR K7BM 152206Z AUTO 19004KT 10SM CLR 08/M17 A3027 RMK AO2

METAR KAEJ 152255Z AUTO 31011KT 10SM CLR 10/M13 A3019 RMK AO2
       T01031131
METAR KAEJ 152235Z AUTO 32013KT 10SM CLR 11/M13 A3019 RMK AO2
       T01101135
METAR KAEJ 152215Z AUTO 32011KT 10SM CLR 11/M14 A3019 RMK AO2
       T01121143

METAR KANK 152255Z AUTO 23007KT 10SM CLR 11/M08 A3025 RMK AO1
       T01111081
METAR KANK 152235Z AUTO 21006KT 10SM CLR 12/M08 A3025 RMK AO1
       T01211085
METAR KANK 152215Z AUTO 23005KT 10SM CLR 13/M08 A3025 RMK AO1
       T01271083

METAR KMYP 152250Z AUTO 24017G23KT 10SM CLR M02/M12 A3044 RMK AO2
METAR KMYP 152232Z AUTO 23019G25KT 10SM CLR M01/M12 A3044 RMK AO2
METAR KMYP 152213Z AUTO 24017G22KT 10SM CLR M01/M11 A3044 RMK AO2

METAR KAIB 152255Z AUTO 00000KT 10SM CLR 12/M10 A3023 RMK AO2
METAR KAIB 152235Z AUTO 27003KT 10SM CLR 12/M10 A3023 RMK AO2
METAR KAIB 152215Z AUTO 00000KT 10SM CLR 12/M10 A3023 RMK AO2

KTEX 151720Z 1518/1618 VRB05KT P6SM SKC
     FM151900 29005KT P6SM SKC
     FM160200 13005KT P6SM SKC
METAR KTEX 152255Z AUTO 28011KT 10SM CLR 07/M10 A3028 RMK AO2
METAR KTEX 152235Z AUTO 27013KT 10SM CLR 08/M10 A3028 RMK AO2
METAR KTEX 152215Z AUTO 28011KT 10SM CLR 08/M11 A3028 RMK AO2

METAR K04V 152254Z AUTO 00000KT 10SM CLR 07/M06 A3023 RMK AO2
METAR K04V 152236Z AUTO 00000KT 10SM CLR 07/M06 A3023 RMK AO2
METAR K04V 152212Z AUTO 00000KT 10SM CLR 07/M06 A3023 RMK AO2

METAR KCEZ 152253Z AUTO 22008KT 10SM CLR 09/M09 A3020 RMK AO2 SLP228
       T00941094
METAR KCEZ 152153Z AUTO 21009KT 10SM CLR 10/M09 A3021 RMK AO2 SLP228
       T01001089
METAR KCEZ 152053Z AUTO 21009KT 10SM CLR 10/M09 A3022 RMK AO2 SLP234
       T01001089 56024

KDRO 151720Z 1518/1618 VRB03KT P6SM SKC
     FM152000 24005KT P6SM SKC
     FM160200 02004KT P6SM SKC
METAR KDRO 152253Z AUTO 24007KT 10SM CLR 09/M06 A3020 RMK AO2 SLP237
       T00941056
METAR KDRO 152153Z AUTO 20004KT 10SM CLR 10/M07 A3020 RMK AO2 SLP240
       T01001067
METAR KDRO 152053Z AUTO 26007KT 10SM CLR 09/M07 A3022 RMK AO2 SLP246
        T00941072 56022

METAR KPSO 152255Z AUTO 24005KT 10SM CLR 12/M10 A3022 RMK AO2
       T01151103
METAR KPSO 152235Z AUTO 25006KT 10SM CLR 12/M10 A3022 RMK AO2
       T01171102
METAR KPSO 152215Z AUTO 24006KT 10SM CLR 12/M09 A3022 RMK AO2
       T01211092

METAR KCPW 152252Z AUTO 23005KT 10SM CLR 00/M10 A3041 RMK AO2
METAR KCPW 152228Z AUTO 25004KT 10SM CLR 01/M10 A3041 RMK AO2
METAR KCPW 152211Z AUTO 24004KT 10SM CLR 01/M11 A3041 RMK AO2

KALS 151723Z 1518/1618 VRB05KT P6SM SCT250
METAR KALS 152252Z AUTO 00000KT 10SM CLR 09/M10 A3021 RMK AO2 SLP245
       T00941100
METAR KALS 152152Z AUTO 00000KT 10SM CLR 10/M09 A3022 RMK AO2 SLP243
       T01001094
METAR KALS 152052Z AUTO 27003KT 10SM CLR 09/M09 A3023 RMK AO2 SLP247
       T00891089 56023

Sunrise/Sunset for 11/15/2018
Vail    - 06:50:05 MST / 16:49:59 MST
Durango - 06:50:57 MST / 17:01:13 MST
Alamosa - 06:43:21 MST / 16:52:51 MST

Grand Junction Aviation Discussion
Issued at 2257 UTC Thursday, November 15, 2018

.AVIATION...(For the 18Z TAFS through 18Z Friday afternoon)
Issued at 1020 AM MST Thu Nov 15 2018
VFR continues as some medium to high clouds move in from the
northwest. Cloud cover will remain few to scattered though some
broken cloud decks are possible. Any ceilings will be above 15K
feet.


* * * * * Arizona * * * * *

KPGA 151722Z 1518/1618 VRB04KT P6SM FEW250
METAR KPGA 152253Z AUTO 00000KT 10SM CLR 12/M08 A3020 RMK AO2 SLP217
       T01221083 TSNO
METAR KPGA 152153Z AUTO 04004KT 10SM CLR 12/M09 A3021 RMK AO2 SLP218
       T01221089 TSNO

METAR KRQE 152253Z AUTO 13007KT 10SM CLR 14/M12 A3021 RMK AO2 SLP201
       T01391117
METAR KRQE 152153Z AUTO 11005KT 10SM CLR 15/M12 A3021 RMK AO2 SLP201
       T01501122

Flagstaff (KFSX) 11/15/18 22:52 UTC
Radar VAD winds      Height      Dir/Spd(kt)
                   9000 FT MSL...061/016
                   8500 FT MSL...307/003
                   8100 FT MSL...049/008
                   8000 FT MSL...040/014
                   7800 FT MSL...058/009

Flagstaff Aviation Discussion
Issued at 2239 UTC Thursday, November 15, 2018

.AVIATION...For the 00Z Package...Expect VFR conditions under
variable high level cirrus over the next 24 hours. Wind speeds
remaining 10 kts or less. Aviation discussion not updated for TAF
amendments.


* * * * * Utah * * * * *

KSLC 152107Z 1521/1624 33006KT P6SM BKN200
     FM160300 15006KT P6SM BKN200
     FM161900 33006KT P6SM FEW150 SCT200
METAR KSLC 152254Z 29006KT 10SM FEW180 BKN230 08/M03 A3027 RMK AO2
       SLP253 T00831028
METAR KSLC 152154Z 31006KT 10SM FEW190 BKN220 09/M04 A3028 RMK AO2
       SLP256 T00891044
METAR KSLC 152054Z 32006KT 10SM BKN220 09/M04 A3029 RMK AO2 SLP258
       T00941044 58019

KVEL 151720Z 1518/1618 12003KT P6SM SKC
     FM152200 24005KT P6SM SCT250
     FM160200 28004KT P6SM FEW250
METAR KVEL 152253Z AUTO 00000KT 10SM CLR 10/M11 A3022 RMK AO2 SLP245
       T01001106
METAR KVEL 152153Z AUTO 00000KT 10SM CLR 09/M11 A3024 RMK AO2 SLP251
       T00891111
METAR KVEL 152053Z AUTO 00000KT 10SM CLR 08/M11 A3026 RMK AO2 SLP261
       T00781106 56028

METAR KPUC 152253Z AUTO 18003KT 10SM CLR 09/M08 A3022 RMK AO2 SLP251
       T00941083
METAR KPUC 152153Z AUTO 09003KT 10SM CLR 10/M09 A3023 RMK AO2 SLP250
       T01001089

KCNY 151720Z 1518/1618 VRB05KT P6SM SKC
     FM152200 33004KT P6SM SKC
     FM160300 23004KT P6SM SKC
METAR KCNY 152253Z AUTO 32006KT 10SM CLR 10/M08 A3020 RMK AO2 SLP236
        T01001083
METAR KCNY 152153Z AUTO 00000KT 10SM CLR 11/M08 A3021 RMK AO2 SLP234
        T01111083
METAR KCNY 152053Z AUTO 30004KT 10SM CLR 10/M08 A3023 RMK AO2 SLP246
        T01001083 56030


Salt Lake City (KMTX) 11/15/18 22:54 UTC
Radar VAD winds      Height      Dir/Spd(kt)
                  22000 FT MSL...348/003
                  20000 FT MSL...305/003
                  19000 FT MSL...295/010
                  18000 FT MSL...326/004
                  17800 FT MSL...299/008
                  15500 FT MSL...039/003
                  14000 FT MSL...291/006
                  13000 FT MSL...287/017
                  12100 FT MSL...046/003
                   9100 FT MSL...286/004
                   9000 FT MSL...283/005
                   8300 FT MSL...293/003
                   8000 FT MSL...002/001
                   7600 FT MSL...300/003
                   7000 FT MSL...082/001

Salt Lake City Aviation Discussion
Issued at 2226 UTC Thursday, November 15, 2018

.AVIATION...
Light northwesterly surface winds currently in place are expected
to become light and variable after 02-03z, then become a prevailing
southeast later in the evening. Although VFR conditions will be
maintained, slantwise visibility reductions are likely prior to
sunset.


* * * * * Wyoming * * * * *

KEVW 151729Z 1518/1618 26009KT P6SM SCT200
     FM152000 27011KT P6SM SCT180
     FM160400 23007KT P6SM SCT180=
METAR KEVW 152253Z AUTO 27007KT 10SM CLR 10/M06 A3025 RMK AO2 SLP221
       T01001056
METAR KEVW 152153Z AUTO 28004KT 10SM CLR 10/M07 A3026 RMK AO2 SLP221
       T01001072
METAR KEVW 152053Z AUTO 26008KT 10SM CLR 10/M07 A3028 RMK AO2 SLP225
        T01001067 56020

KRKS 151731Z 1518/1618 26015KT P6SM SCT200
     FM160100 24011KT P6SM FEW120 SCT200
METAR KRKS 152254Z AUTO 25014KT 10SM CLR 08/M09 A3021 RMK AO2 SLP220
       T00781089
METAR KRKS 152154Z AUTO 26014KT 10SM CLR 08/M09 A3022 RMK AO2 SLP223
       T00831094
METAR KRKS 152054Z AUTO 27015KT 10SM CLR 08/M10 A3023 RMK AO2 PK WND
       28026/2003 SLP229 T00831100 56018

KRWL 151720Z 1518/1618 26015G23KT P6SM SCT250
     FM160000 25010KT P6SM FEW250
     FM161600 25020G30KT P6SM SCT100 BKN200
METAR KRWL 152253Z AUTO 24017KT 10SM CLR 08/M11 A3018 RMK AO2 SLP198
       T00831106
METAR KRWL 152153Z AUTO 26013KT 10SM CLR 09/M10 A3019 RMK AO2 SLP198
        T00891100
METAR KRWL 152053Z AUTO 26014G23KT 10SM CLR 09/M10 A3020 RMK AO2 SLP200
       T00891100 58015

KLAR 151720Z 1518/1618 28013KT P6SM SCT250
     FM151900 30013G20KT P6SM SCT250
     FM160000 22008KT P6SM FEW250
     FM161500 25015G28KT P6SM SCT100 BKN250
METAR KLAR 152253Z AUTO 36008KT 10SM CLR 07/M06 A3016 RMK AO2 SLP192
       T00671061
METAR KLAR 152153Z AUTO 27014KT 10SM CLR 08/M08 A3016 RMK AO2 SLP186
        T00831083
METAR KLAR 152053Z AUTO 27015KT 10SM CLR 09/M08 A3017 RMK AO2 SLP182
       T00891083 56013

KCYS 151720Z 1518/1618 32015G23KT P6SM SCT250
     FM160000 30008KT P6SM FEW250
     FM161500 29018G28KT P6SM SCT100 BKN250
METAR KCYS 152253Z 35009G18KT 10SM CLR 11/M09 A3013 RMK AO2 SLP166
       T01061094
METAR KCYS 152153Z 34016G20KT 10SM CLR 11/M10 A3012 RMK AO2 SLP165
       T01111100
METAR KCYS 152053Z 33013G21KT 10SM CLR 12/M09 A3013 RMK AO2 SLP160
       T01171089 56016

Riverton (KRIW) 11/15/18 22:53 UTC
Radar VAD winds      Height      Dir/Spd(kt)
                   8100 FT MSL...244/001

Cheyenne (KCYS) 11/15/18 22:48 UTC
Radar VAD winds      Height      Dir/Spd(kt)
                  11000 FT MSL...253/024
                  10000 FT MSL...270/050
                   8000 FT MSL...258/002

Riverton Aviation Discussion
Issued at 2105 UTC Thursday, November 15, 2018

.AVIATION...For the 00Z TAFS through 00Z Friday evening
Issued at 202 PM MST Thu Nov 15 2018
VFR conditions are expected for the next 24 hours at all TAF sites.
Breezy conditions again primarily from KRKS-KCPR and on the east
side of the major mountain ranges.  Mainly scattered high clouds
forecast Thursday into Thursday night, with increasing cloudiness
after 09Z/Fri across NW WY with the approaching cold front. Expect
north wind with snow showers to push into KCOD-KBYG around 21Z/Fri
as cold front from Montana brings snow to the area Friday night.

Cheyenne Aviation Discussion
Issued at 2143 UTC Thursday, November 15, 2018

.AVIATION...(For the 18Z TAFS through 18Z Friday afternoon)
Issued at 1015 AM MST Thu Nov 15 2018
VFR conditions expected next 24 hours with gusty west to northwest
winds. Conditions expected to change late Friday afternoon as a
cold front moves into the area from the northwest. Widespread snow
and upsloping winds Friday night into Saturday expected for most
airports in southeast Wyoming and Nebraska Panhandle.


* * * * * Nebraska * * * * *

METAR KIBM 152255Z AUTO 35009KT 10SM CLR 11/M08 A3012 RMK AO2
       T01081082
METAR KIBM 152235Z AUTO 35009KT 10SM CLR 11/M08 A3012 RMK AO2
       T01141085
METAR KIBM 152215Z AUTO 35010G14KT 10SM CLR 12/M09 A3012 RMK AO2
       T01201086

KSNY 151720Z 1518/1618 34020G28KT P6SM SCT250
     FM160000 30008KT P6SM FEW250
METAR KSNY 152253Z AUTO 35010KT 10SM CLR 12/M05 A3011 RMK AO2 SLP193
       T01171050
METAR KSNY 152153Z AUTO 34013G23KT 10SM CLR 13/M05 A3011 RMK AO2 SLP191
       T01331050
METAR KSNY 152053Z AUTO 33017G25KT 10SM CLR 14/M05 A3011 RMK AO2 PK WND
       34026/2014 SLP191 T01441050 56012

METAR KOGA 152255Z AUTO 33011G15KT 10SM CLR 14/M04 A3008 RMK AO2
       T01361044
METAR KOGA 152235Z AUTO 33012G15KT 10SM CLR 15/M04 A3007 RMK AO2
       T01471045
METAR KOGA 152215Z AUTO 33016G21KT 10SM CLR 15/M05 A3007 RMK AO2
       T01531047

METAR KIML 152253Z AUTO 35006KT 10SM CLR 13/M06 A3008 RMK AO2 SLP195
       T01281056
METAR KIML 152153Z AUTO 33014KT 10SM CLR 16/M06 A3008 RMK AO2 SLP189
       T01561061
METAR KIML 152053Z AUTO 34013KT 10SM CLR 16/M06 A3007 RMK AO2 SLP185
       T01611061 56007

KMCK 151801Z 1518/1618 35013KT P6SM SKC
      TEMPO 1518/1520 36015G25KT
     FM160000 VRB06KT P6SM SKC
     FM161700 21017G24KT P6SM SKC
METAR KMCK 152253Z AUTO 34008KT 10SM CLR 11/M02 A3006 RMK AO2 SLP188
       T01111017
METAR KMCK 152153Z AUTO 36014KT 10SM CLR 16/M03 A3005 RMK AO2 SLP178
       T01611028
METAR KMCK 152053Z AUTO 01012KT 10SM CLR 18/M03 A3004 RMK AO2 SLP173
       T01781028 55001

North Platte (KLNX) 11/15/18 22:51 UTC
Radar VAD winds      Height      Dir/Spd(kt)
                   4000 FT MSL...295/014
                   4000 FT MSL...319/024

North Platte Aviation Discussion
Issued at 2119 UTC Thursday, November 15, 2018

.AVIATION...(For the 18Z TAFS through 18Z Friday afternoon)
Issued at 1159 AM CST Thu Nov 15 2018
Strong winds with gusts up to 30 knots are possible at both
terminals this afternoon. Winds will gradually diminish after 00Z
Friday. VFR conditions return for the remainder of the TAF period
with mostly clear skies and winds under 10 knots.


* * * * * Kansas * * * * *

KGLD 151955Z 1520/1618 33014KT P6SM SKC
      TEMPO 1520/1522 33015G25KT
     FM160000 VRB06KT P6SM SKC
     FM161700 21017G24KT P6SM SKC
METAR KGLD 152253Z AUTO 02007KT 10SM CLR 12/M02 A3009 RMK AO2 SLP188
       T01171017
METAR KGLD 152153Z AUTO 01012KT 10SM CLR 15/M02 A3009 RMK AO2 SLP183
       T01501022
METAR KGLD 152053Z AUTO 02013G21KT 10SM CLR 16/M03 A3007 RMK AO2 SLP176
       T01561028 55002

KGCK 151720Z 1518/1618 32012G22KT P6SM SKC
     FM160000 35008KT P6SM SKC
     FM160900 VRB04KT P6SM SKC
     FM161500 19015G25KT P6SM SKC
METAR KGCK 152254Z 36009KT 10SM CLR 13/01 A3005 RMK AO2 SLP181
       T01330006
METAR KGCK 152154Z 34012KT 10SM CLR 17/M01 A3003 RMK AO2 SLP167
       T01671006
METAR KGCK 152054Z 32016G22KT 10SM CLR 18/M02 A3002 RMK AO2 SLP160 6////
       T01831017 55011

METAR KLBL 152256Z AUTO 33008KT 10SM CLR 17/M01 A3005 RMK AO2 SLP178
       T01671011
METAR KLBL 152156Z AUTO 34013KT 10SM CLR 19/M02 A3003 RMK AO2 SLP169
       T01941022
METAR KLBL 152056Z AUTO 34011G20KT 10SM CLR 20/M02 A3003 RMK AO2 SLP167
       T02001017 56015

METAR KEHA 152255Z AUTO 36007KT 10SM CLR 18/00 A3008 RMK AO2
       T01780000
METAR KEHA 152235Z AUTO 34009KT 10SM CLR 19/00 A3007 RMK AO2
       T01881005
METAR KEHA 152215Z AUTO 36009G15KT 10SM CLR 19/M01 A3007 RMK AO2
       T01941006

Goodland (KGLD) 11/15/18 22:50 UTC
Radar VAD winds      Height      Dir/Spd(kt)
                   6000 FT MSL...035/026
                   5000 FT MSL...053/021
                   4700 FT MSL...055/020
                   4600 FT MSL...015/012

Dodge City (KDDC) 11/15/18 22:58 UTC
Radar VAD winds      Height      Dir/Spd(kt)
                   9700 FT MSL...190/004
                   9000 FT MSL...268/004
                   6000 FT MSL...352/015
                   5100 FT MSL...335/010
                   5000 FT MSL...328/011
                   4400 FT MSL...350/019
                   4000 FT MSL...351/020
                   3700 FT MSL...354/018
                   3200 FT MSL...356/024
                   3000 FT MSL...354/021
                   3000 FT MSL...354/021

Goodland Aviation Discussion
Issued at 2149 UTC Thursday, November 15, 2018

.AVIATION...(For the 18Z TAFS through 18Z Friday afternoon)
Issued at 1025 AM MST Thu Nov 15 2018
VFR conditions /clear skies/ will rule through the TAF period.
NW winds sustained at 15-20 knots will gust up to 30 knots late
this morning and early this afternoon, weakening to 10-15 knots
by late afternoon. Winds will become light/variable AOA sunset
and remain light/variable overnight. Winds will back to the SW and
strengthen to 15-25 knots near the end of the TAF period (16-18Z
Fri).

Dodge City Aviation Discussion
Issued at 1900 UTC Thursday, November 15, 2018

.AVIATION...(For the 18Z TAFS through 18Z Friday afternoon)
Issued at 1000 AM CST Thu Nov 15 2018
Excellent flying weather will continue, with VFR/SKC through
Friday. NW winds will gust modestly to near 20 kts for several
hours this afternoon, then diminish rapidly to light and variable
tonight. After 15z Fri, gusty south winds increase to 15-25 kts
at all airports.


* * * * * Texas/Oklahoma * * * * *

KGUY 151720Z 1518/1618 33006KT P6SM SKC
     FM160700 VRB04KT P6SM SKC
     FM161600 19007KT P6SM SKC=
METAR KGUY 152253Z AUTO 35010KT 10SM CLR 18/M04 A3005 RMK AO2 SLP162
       T01831039
METAR KGUY 152153Z AUTO 35014KT 10SM CLR 20/M03 A3004 RMK AO2 SLP158
       T02001033
METAR KGUY 152053Z AUTO 01011KT 10SM CLR 21/M03 A3004 RMK AO2 SLP157
       T02061033 55012

KDHT 151720Z 1518/1618 25005KT P6SM SKC
     FM160100 03005KT P6SM SKC
     FM160500 36006KT P6SM SKC
     FM161400 24005KT P6SM SKC
METAR KDHT 152253Z AUTO 04009KT 10SM CLR 18/M03 A3009 RMK AO2 SLP170
       T01781033
METAR KDHT 152153Z AUTO 01013KT 10SM CLR 20/M03 A3007 RMK AO2 SLP166
       T02001033

Amarillo (KAMA) 11/15/18 22:54 UTC
Radar VAD winds      Height      Dir/Spd(kt)
                  15000 FT MSL...343/001
                  14000 FT MSL...020/001
                  13000 FT MSL...287/004
                  12000 FT MSL...273/006
                  11600 FT MSL...284/004
                  11000 FT MSL...287/007
                  10000 FT MSL...294/009
                   9900 FT MSL...296/009
                   9000 FT MSL...292/011
                   8200 FT MSL...278/011
                   8000 FT MSL...283/013
                   7000 FT MSL...291/014
                   6500 FT MSL...287/014
                   6000 FT MSL...284/013
                   5000 FT MSL...284/012
                   4700 FT MSL...288/013
                   4600 FT MSL...305/012
                   4000 FT MSL...311/013
                   4000 FT MSL...303/013

Amarillo Aviation Discussion
Issued at 2304 UTC Thursday, November 15, 2018

.AVIATION...
Light northerly winds will prevail overnight. South to southwest
winds will pick up by Friday afternoon to around 15 knots with
higher gusts. Skies are expected to remain VFR.


* * * * * New Mexico * * * * *

KFMN 151730Z 1518/1618 13006KT P6SM SKC
     FM151900 26007KT P6SM SKC
     FM160500 07005KT P6SM FEW250
METAR KFMN 152253Z 27007KT 10SM CLR 09/M09 A3019 RMK AO2 SLP234
       T00941094
METAR KFMN 152153Z 27007KT 10SM CLR 11/M09 A3020 RMK AO2 SLP236 T01061094
METAR KFMN 152053Z 28009KT 10SM CLR 10/M10 A3022 RMK AO2 SLP244
       T01001100 56027

METAR KSKX 152256Z AUTO 18003KT 10SM CLR 08/M07 A3024 RMK AO2 SLP258
       T00781067 $
METAR KSKX 152156Z AUTO 20004KT 10SM CLR 08/M06 A3024 RMK AO2 SLP262
       T00781056 $
METAR KSKX 152056Z AUTO 00000KT 10SM CLR 07/M07 A3025 RMK AO2 SLP269
       T00671067 56020 $

KLVS 151730Z 1518/1618 01007KT P6SM SKC
     FM152000 12009KT P6SM SKC
     FM160400 05007KT P6SM FEW250
METAR KLVS 152253Z AUTO 08006KT 10SM CLR 14/M11 A3016 RMK AO2 SLP163
       T01391111
METAR KLVS 152153Z AUTO 07007KT 10SM CLR 15/M11 A3015 RMK AO2 SLP158
        T01501106
METAR KLVS 152053Z AUTO 06008KT 10SM CLR 16/M09 A3016 RMK AO2 SLP158
       T01561094 56013

METAR KRTN 152253Z AUTO 10005KT 10SM CLR 14/M11 A3013 RMK AO2 SLP185
       T01441111
METAR KRTN 152153Z AUTO 05009KT 10SM CLR 16/M12 A3013 RMK AO2 SLP178
       T01611122
METAR KRTN 152053Z AUTO 05009KT 10SM CLR 17/M12 A3013 RMK AO2 SLP174
       T01671117 56015

METAR KCAO 152055Z AUTO 04014KT 10SM CLR 18/M06 A3010 RMK AO2 SLP166
       T01781056 55007

Albuquerque (KABX) 11/15/18 22:53 UTC
Radar VAD winds      Height      Dir/Spd(kt)
                  15000 FT MSL...338/001
                  11000 FT MSL...276/013
                  10000 FT MSL...354/018
                   9000 FT MSL...341/017
                   8700 FT MSL...249/018
                   6900 FT MSL...258/002

Albuquerque Aviation Discussion
Issued at 2301 UTC Thursday, November 15, 2018

.AVIATION...
00Z TAF CYCLE
Excellent aviation weather conditions continue to prevail across
northern and central New Mexico. Light breezes will be the rule in
most locales, aside from some moderate drainage breezes from the
north at KSAF early Friday morning and then scattered breeziness
across east central New Mexico Friday afternoon. Localized freezing
fog to develop in the Moreno valley again tonight near KAXX, but
otherwise just high, fair weather cirrus are expected.
52

* * * * * Winds and Temperatures Aloft Forecasts * * * * *

DATA BASED ON 151200Z
VALID 151800Z   FOR USE 1700-2100Z. TEMPS NEG ABV 24000
FT  3000    6000   9000    12000   18000   24000  30000  34000  39000
SLC      9900    3307+02 3314-03 3318-16 3023-29 303645 304055 304763
BCE                      0408+00 0410-15 3610-27 322844 324052 326062
LND              3414+00 3119-05 3137-17 3144-30 304847 305457 305763
RKS              3121    3117-03 3126-16 3131-30 303847 304656 305063
GJT              9900+02 3306-02 3614-15 3217-28 322645 333854 313662
FMN              3209+04 0107-01 0216-16 0318-28 341844 322452 313159
ABQ              3409+04 3405-01 3607-17 3413-28 331743 331952 302358
MBW              3211    3021-05 3140-16 3146-30 304447 294556 304763
DEN              3514+05 3209-03 3227-16 3228-29 292946 303055 293463
PUB              3610+06 3208-01 3514-16 3519-29 321746 302454 293360
ALS                      3614-01 0116-17 0418-28 331645 302053 293059
TCC      2516    2506+06 3605-01 9900-17 2809-28 271243 281353 291958
BFF      0218    3508+00 2814-06 3145-17 3054-30 295347 295456 295064
GLD      3626    3324+04 3126-02 3223-16 3230-29 313346 293255 284161
GCK      3118+11 3022+04 3219-02 3317-17 3520-29 312345 293154 283661
GAG      2818+12 3116+05 3217-02 3217-17 2926-28 283244 293053 282760
AMA      2615    3006+05 3308-02 9900-16 2518-28 271944 272253 292259
---------------------------------------------------------------------

DATA BASED ON 151200Z
VALID 160000Z   FOR USE 2100-0600Z. TEMPS NEG ABV 24000
FT  3000    6000   9000    12000   18000   24000  30000  34000  39000
SLC      9900    3106+02 3109-02 3116-16 3024-29 303445 294055 294763
BCE                      0406+00 9900-14 2808-27 303242 304351 305062
LND              3009+02 3121-02 3228-17 3129-30 314047 314757 305964
RKS              2916    3017-02 3126-16 3126-30 313647 304956 305463
GJT              9900+03 2906-02 3214-15 3023-29 313545 314154 314662
FMN              9900+05 9900+00 0610-14 3514-28 332744 323553 324860
ABQ              3413+06 3608-01 0109-16 3515-27 332243 332951 313558
MBW              2723    3027-04 3233-17 3139-30 314648 314757 305763
DEN              2809+01 3023-03 3227-16 3129-30 303747 304356 304762
PUB              0507+03 3012-03 3317-15 3219-29 313146 313755 304262
ALS                      3509-01 0111-15 3417-28 332745 333454 313661
TCC      2512    9900+06 9900-01 3408-17 3409-28 301444 291852 282858
BFF      3217    2923-02 3135-05 3142-18 3148-31 315748 305757 305962
GLD      0219    3115+02 3130-03 3132-17 3139-30 294447 294856 294962
GCK      0420+08 3323+04 3123-02 3123-16 3124-29 293346 283755 284660
GAG      3314+12 3018+05 3017-03 3215-17 3213-29 282545 273154 273859
AMA      3012    2808+05 3308-02 3207-17 2810-28 281644 271953 283058
---------------------------------------------------------------------

DATA BASED ON 151200Z
VALID 161200Z   FOR USE 0600-1700Z. TEMPS NEG ABV 24000
FT  3000    6000   9000    12000   18000   24000  30000  34000  39000
SLC      9900    2710+02 2817-02 2818-17 2823-30 282346 282855 294260
BCE                      2707-01 2711-16 2623-28 283943 284752 285262
LND              2916+04 2928-02 2829-18 2835-31 284547 295156 294863
RKS              2826    2826-02 2830-17 2833-30 283646 284056 304663
GJT              2408+02 2615-02 2713-16 2723-29 273446 284754 295561
FMN              9900+03 2410-01 2411-15 2618-28 283543 294752 295762
ABQ              9900+03 2406-01 9900-14 2909-27 293342 294151 294861
MBW              2741    2933-03 2836-17 2933-30 294247 295056 304664
DEN              2915+04 2919-01 2826-17 2927-30 293846 294456 305162
PUB              2515+04 2719-01 2922-16 3032-30 303546 304055 305361
ALS                      2617-01 2815-15 2925-29 293445 304954 306061
TCC      9900    2212+05 2307-02 3406-15 3316-28 313044 314652 305661
BFF      2726    2722+01 2930-04 2937-17 3040-31 304348 305157 305264
GLD      2219    2622+02 2722-03 2931-17 2932-31 293247 304356 305162
GCK      2207+05 2809+02 2721-03 2926-16 2926-31 302547 303755 294461
GAG      1006+06 2713+03 2615-03 3013-16 3018-30 302546 303154 293960
AMA      9900    2411+04 2508-03 3406-16 3217-29 312945 313653 304860
---------------------------------------------------------------------

This product is updated automatically at approximately 10, 30 and 50
minutes after each hour, 24 hours per day, 7 days per week.  It may
become unavailable at times due to system outages without prior notice.
Users are advised to check the time at the top of the product to ensure
that it is current.  Furthermore, content and format of the product are
subject to change without prior notice.

Comments and suggestions are welcome and should be directed to one of
the addresses or phone numbers shown at the bottom of this page.  In
order to expedite a response to comments or suggestions, be sure to
mention your interest in the hot-air balloon forecast.


USA.gov is the U.S. government's official web portal to all federal, state and local government web resources and services.